Time;durP1;ratioP1;P1;durP2;ratioP2;P2;SDS_P1;SDS_P2;PMS_P1;PMS_P2;Temp;Humidity;BMP_temperature;BMP_pressure;BME280_temperature;BME280_humidity;BME280_pressure;Samples;Min_cycle;Max_cycle;Signal;HPM_P1;HPM_P2
2023/02/12 00:01:20;;;;;;;;;30.67;27.67;;;;;11.13;100.00;103329.91;5100880;27;45418;-75
2023/02/12 00:03:46;;;;;;;;;24.67;22.00;;;;;11.17;100.00;103333.19;5100086;27;46182;-75
2023/02/12 00:06:11;;;;;;;;;27.67;23.00;;;;;11.10;100.00;103317.69;5104761;27;45979;-74
2023/02/12 00:08:38;;;;;;;;;27.00;24.00;;;;;11.13;100.00;103321.91;5102489;27;45380;-75
2023/02/12 00:11:25;;;;;;;;;22.67;21.00;;;;;11.11;100.00;103321.19;5100752;27;45295;-75
2023/02/12 00:13:51;;;;;;;;;22.33;20.00;;;;;11.10;100.00;103327.47;5095660;27;46179;-75
2023/02/12 00:16:19;;;;;;;;;24.33;21.67;;;;;11.08;100.00;103324.09;5091683;27;46094;-75
2023/02/12 00:18:45;;;;;;;;;27.33;25.33;;;;;11.11;100.00;103318.53;5099929;27;45310;-75
2023/02/12 00:21:12;;;;;;;;;28.00;26.00;;;;;11.16;100.00;103318.19;5100307;27;45347;-75
2023/02/12 00:23:39;;;;;;;;;25.67;24.33;;;;;11.19;100.00;103325.94;5095586;27;45431;-75
2023/02/12 00:26:11;;;;;;;;;24.33;22.33;;;;;11.13;100.00;103316.59;5092525;27;47408;-75
2023/02/12 00:28:37;;;;;;;;;26.33;23.00;;;;;11.14;100.00;103322.78;5100306;27;45456;-75
2023/02/12 00:31:07;;;;;;;;;28.00;23.00;;;;;11.06;100.00;103318.00;5100037;27;45441;-75
2023/02/12 00:33:32;;;;;;;;;22.67;18.67;;;;;11.98;100.00;103324.44;5095064;27;45330;-75
2023/02/12 00:35:58;;;;;;;;;21.67;19.33;;;;;11.03;100.00;103311.13;5095357;27;45228;-75
2023/02/12 00:38:23;;;;;;;;;21.67;18.33;;;;;11.03;100.00;103329.75;5100220;27;45361;-75
2023/02/12 00:40:49;;;;;;;;;21.00;20.67;;;;;11.02;100.00;103311.22;5099904;27;45360;-75
2023/02/12 00:43:14;;;;;;;;;22.67;20.67;;;;;11.03;100.00;103315.59;5098935;27;45514;-75
2023/02/12 00:45:40;;;;;;;;;20.00;19.00;;;;;10.95;100.00;103302.84;5099670;27;46286;-75
2023/02/12 00:48:05;;;;;;;;;21.00;18.33;;;;;11.02;100.00;103322.75;5100106;27;45359;-75
2023/02/12 00:50:30;;;;;;;;;22.00;21.00;;;;;10.95;100.00;103319.66;5099781;27;45347;-75
2023/02/12 00:52:56;;;;;;;;;22.33;20.67;;;;;10.96;100.00;103320.53;5099669;27;45455;-75
2023/02/12 00:55:21;;;;;;;;;18.00;15.67;;;;;11.04;100.00;103323.44;5099754;27;45550;-75
2023/02/12 00:57:46;;;;;;;;;20.00;18.00;;;;;11.05;100.00;103326.97;5099787;27;45301;-75
2023/02/12 01:00:13;;;;;;;;;21.33;19.00;;;;;11.07;100.00;103322.38;5099971;27;45365;-76
2023/02/12 01:02:39;;;;;;;;;21.00;19.00;;;;;11.12;100.00;103320.22;5099807;27;45270;-75
2023/02/12 01:05:04;;;;;;;;;20.67;18.67;;;;;11.17;100.00;103322.53;5097750;27;46871;-75
2023/02/12 01:07:30;;;;;;;;;21.33;18.67;;;;;11.06;100.00;103324.19;5107570;27;45399;-75
2023/02/12 01:09:55;;;;;;;;;18.67;16.33;;;;;12.29;100.00;103322.03;5098429;27;45448;-74
2023/02/12 01:12:20;;;;;;;;;19.67;17.33;;;;;11.28;100.00;103314.59;5099877;27;45299;-75
2023/02/12 01:14:46;;;;;;;;;17.33;16.67;;;;;11.23;100.00;103306.94;5097926;27;47565;-75
2023/02/12 01:17:11;;;;;;;;;22.00;21.33;;;;;11.25;100.00;103317.47;5099571;27;45200;-75
2023/02/12 01:19:37;;;;;;;;;18.33;18.33;;;;;11.31;100.00;103313.53;5095307;27;45572;-75
2023/02/12 01:22:02;;;;;;;;;18.00;18.00;;;;;11.31;100.00;103313.53;5099462;27;45324;-75
2023/02/12 01:24:27;;;;;;;;;18.33;16.33;;;;;11.23;100.00;103314.94;5101178;27;46357;-75
2023/02/12 01:26:53;;;;;;;;;18.67;16.67;;;;;11.22;100.00;103307.91;5103351;27;45353;-75
2023/02/12 01:29:18;;;;;;;;;18.33;18.33;;;;;12.22;100.00;103308.34;5103040;27;45260;-75
2023/02/12 01:31:43;;;;;;;;;17.33;17.33;;;;;11.41;100.00;103308.34;5101809;27;47241;-75
2023/02/12 01:34:10;;;;;;;;;18.67;16.00;;;;;12.27;100.00;103312.47;5102700;27;45596;-75
2023/02/12 01:36:35;;;;;;;;;23.00;20.33;;;;;11.36;100.00;103312.22;5103163;27;45463;-75
2023/02/12 01:39:01;;;;;;;;;22.67;18.00;;;;;11.55;100.00;103310.81;5098379;27;45385;-75
2023/02/12 01:41:35;;;;;;;;;18.00;16.67;;;;;11.42;100.00;103308.22;5101511;27;46129;-75
2023/02/12 01:44:17;;;;;;;;;21.67;18.67;;;;;11.38;100.00;103304.13;5102206;27;46376;-75
2023/02/12 01:46:44;;;;;;;;;19.33;18.00;;;;;11.32;100.00;103312.56;5102919;27;45313;-75
2023/02/12 01:49:36;;;;;;;;;17.67;15.00;;;;;11.41;100.00;103308.34;5101457;27;45785;-75
2023/02/12 01:52:12;;;;;;;;;20.00;18.00;;;;;11.38;100.00;103314.75;5101985;27;45445;-75
2023/02/12 01:54:39;;;;;;;;;16.33;15.67;;;;;11.24;100.00;103306.00;5102758;27;45278;-75
2023/02/12 01:57:08;;;;;;;;;15.00;14.33;;;;;11.41;100.00;103300.38;5101058;27;46041;-75
2023/02/12 01:59:35;;;;;;;;;16.67;15.33;;;;;11.20;100.00;103299.19;5101417;27;45345;-75
2023/02/12 02:02:03;;;;;;;;;12.00;11.33;;;;;11.22;100.00;103293.75;5102487;27;45546;-75
2023/02/12 02:04:35;;;;;;;;;19.00;16.00;;;;;11.20;100.00;103287.72;5100930;27;48694;-75
2023/02/12 02:07:03;;;;;;;;;16.00;13.67;;;;;11.27;100.00;103296.94;5110180;27;45348;-75
2023/02/12 02:09:33;;;;;;;;;15.67;14.33;;;;;11.22;100.00;103283.97;5102664;27;45317;-75
2023/02/12 02:14:44;;;;;;;;;15.00;13.33;;;;;11.18;100.00;103273.66;5102144;27;45287;-75
2023/02/12 02:17:19;;;;;;;;;14.33;13.67;;;;;11.22;100.00;103291.09;5102363;27;45560;-75
2023/02/12 02:19:55;;;;;;;;;9.67;9.67;;;;;11.22;100.00;103291.09;5101882;27;45337;-75
2023/02/12 02:22:37;;;;;;;;;13.33;11.67;;;;;11.21;100.00;103292.94;5101950;27;45332;-76
2023/02/12 02:25:27;;;;;;;;;12.67;11.67;;;;;11.21;100.00;103290.25;5100378;27;47397;-75
2023/02/12 02:28:00;;;;;;;;;10.67;9.33;;;;;11.21;100.00;103292.06;5102040;27;45250;-75
2023/02/12 02:30:44;;;;;;;;;15.00;14.67;;;;;11.21;100.00;103286.75;5102242;27;45357;-75
2023/02/12 02:33:09;;;;;;;;;14.67;11.33;;;;;11.22;100.00;103280.44;5101211;27;45428;-75
2023/02/12 02:36:04;;;;;;;;;12.33;11.67;;;;;11.22;100.00;103269.78;5096850;27;46610;-74
2023/02/12 02:38:49;;;;;;;;;13.67;11.67;;;;;11.22;100.00;103277.78;5090786;27;45308;-75
2023/02/12 02:41:29;;;;;;;;;14.00;13.00;;;;;11.22;100.00;103289.28;5101982;27;45439;-75
2023/02/12 02:43:55;;;;;;;;;16.00;14.67;;;;;11.16;100.00;103280.94;5101595;27;45423;-75
2023/02/12 02:46:46;;;;;;;;;15.50;12.00;;;;;11.16;100.00;103283.59;5101808;27;45469;-75
2023/02/12 02:49:18;;;;;;;;;15.67;14.67;;;;;11.66;100.00;103274.50;5097826;27;45285;-75
2023/02/12 02:51:50;;;;;;;;;19.33;17.33;;;;;11.54;100.00;103282.47;5108743;27;45368;-75
2023/02/12 02:54:33;;;;;;;;;18.67;17.00;;;;;11.21;100.00;103278.75;5101391;27;45401;-75
2023/02/12 02:57:07;;;;;;;;;19.00;17.67;;;;;11.18;100.00;103285.16;5099856;27;48410;-75
2023/02/12 02:59:39;;;;;;;;;20.00;18.67;;;;;11.15;100.00;103274.75;5100854;27;45309;-75
2023/02/12 03:02:28;;;;;;;;;16.67;16.00;;;;;11.20;100.00;103277.91;5101753;27;45642;-75
2023/02/12 03:05:02;;;;;;;;;23.67;19.67;;;;;11.15;100.00;103273.88;5100079;27;45412;-75
2023/02/12 03:07:33;;;;;;;;;25.00;20.67;;;;;11.29;100.00;103272.84;5109728;27;45439;-75
2023/02/12 03:10:05;;;;;;;;;22.33;19.67;;;;;11.31;100.00;103276.25;5097447;27;45353;-75
2023/02/12 03:12:40;;;;;;;;;20.67;19.67;;;;;11.25;100.00;103269.56;5101473;27;45468;-75
2023/02/12 03:15:36;;;;;;;;;19.00;19.00;;;;;11.20;100.00;103274.41;5101315;27;45268;-75
2023/02/12 03:18:08;;;;;;;;;23.00;18.33;;;;;11.26;100.00;103267.75;5100782;27;45388;-75
2023/02/12 03:21:13;;;;;;;;;19.33;19.33;;;;;11.20;100.00;103263.75;5100143;27;45330;-75
2023/02/12 03:23:51;;;;;;;;;24.33;24.33;;;;;11.17;100.00;103274.63;5099175;27;45325;-75
2023/02/12 03:26:31;;;;;;;;;22.67;22.00;;;;;11.16;100.00;103267.63;5099441;27;47613;-75
2023/02/12 03:28:56;;;;;;;;;22.00;21.33;;;;;11.18;100.00;103269.19;5100765;27;45298;-75
2023/02/12 03:31:52;;;;;;;;;21.33;21.33;;;;;11.15;100.00;103272.09;5100425;27;45199;-75
2023/02/12 03:34:30;;;;;;;;;25.00;25.00;;;;;11.14;100.00;103264.22;5101039;27;45304;-75
2023/02/12 03:37:06;;;;;;;;;27.00;24.00;;;;;11.13;100.00;103265.19;5100771;27;45546;-75
2023/02/12 03:39:49;;;;;;;;;30.00;26.00;;;;;11.10;100.00;103258.25;5100702;27;45427;-75
2023/02/12 03:42:31;;;;;;;;;26.33;26.33;;;;;11.13;100.00;103266.03;5100981;27;45318;-75
2023/02/12 03:45:17;;;;;;;;;28.33;24.67;;;;;11.08;100.00;103261.03;5089417;27;45213;-75
2023/02/12 03:48:00;;;;;;;;;28.33;24.33;;;;;11.13;100.00;103265.19;5099614;27;45239;-75
2023/02/12 03:50:25;;;;;;;;;25.00;24.00;;;;;11.13;100.00;103266.03;5100183;27;46132;-75
2023/02/12 03:52:50;;;;;;;;;28.33;24.33;;;;;11.13;100.00;103259.88;5087382;27;45331;-75
2023/02/12 03:55:16;;;;;;;;;27.33;26.00;;;;;11.10;100.00;103258.25;5100961;27;45375;-75
2023/02/12 03:57:48;;;;;;;;;23.33;22.33;;;;;11.11;100.00;103260.81;5100719;27;45317;-75
2023/02/12 04:00:20;;;;;;;;;27.00;25.67;;;;;11.08;100.00;103268.19;5100728;27;45374;-75
2023/02/12 04:02:46;;;;;;;;;27.33;21.67;;;;;11.06;100.00;103267.44;5100266;27;45365;-74
2023/02/12 04:05:24;;;;;;;;;27.00;23.67;;;;;11.08;100.00;103269.03;5100343;27;45272;-75
2023/02/12 04:07:52;;;;;;;;;28.67;26.00;;;;;11.06;100.00;103263.00;5107284;27;45364;-75
2023/02/12 04:10:24;;;;;;;;;22.33;21.33;;;;;11.07;100.00;103266.47;5100508;27;46424;-75
2023/02/12 04:12:57;;;;;;;;;30.67;28.00;;;;;11.04;100.00;103256.91;5099918;27;45285;-75
2023/02/12 04:15:28;;;;;;;;;23.33;21.33;;;;;11.07;100.00;103254.03;5100178;27;45478;-74
2023/02/12 04:18:11;;;;;;;;;29.33;25.67;;;;;11.08;100.00;103260.22;5095506;27;46101;-74
2023/02/12 04:20:58;;;;;;;;;24.67;24.00;;;;;11.09;100.00;103265.41;5088799;27;46230;-75
2023/02/12 04:23:38;;;;;;;;;26.33;22.67;;;;;11.09;100.00;103260.09;5099738;27;45528;-75
2023/02/12 04:26:25;;;;;;;;;26.33;25.67;;;;;11.10;100.00;103260.94;5100303;27;45382;-75
2023/02/12 04:29:03;;;;;;;;;25.67;24.67;;;;;11.08;100.00;103263.69;5100222;27;45371;-75
2023/02/12 04:31:34;;;;;;;;;28.67;28.33;;;;;11.10;100.00;103263.59;5099828;27;46590;-75
2023/02/12 04:34:09;;;;;;;;;25.00;22.33;;;;;11.12;100.00;103264.34;5099774;27;45443;-74
2023/02/12 04:36:43;;;;;;;;;25.33;24.67;;;;;11.08;100.00;103260.22;5100094;27;45329;-74
2023/02/12 04:39:16;;;;;;;;;22.00;20.67;;;;;11.06;100.00;103260.31;5099555;27;45221;-75
2023/02/12 04:41:42;;;;;;;;;30.33;25.00;;;;;11.09;100.00;103268.09;5099657;27;45477;-75
2023/02/12 04:44:37;;;;;;;;;28.33;28.33;;;;;11.12;100.00;103269.66;5099457;27;45479;-75
2023/02/12 04:47:03;;;;;;;;;34.33;27.00;;;;;11.11;100.00;103266.13;5091036;27;45257;-75
2023/02/12 04:49:28;;;;;;;;;28.00;27.00;;;;;11.10;100.00;103261.78;5099753;27;45363;-77
2023/02/12 04:51:54;;;;;;;;;25.33;24.67;;;;;11.07;100.00;103261.16;5099807;27;46327;-75
2023/02/12 04:54:22;;;;;;;;;29.67;27.67;;;;;11.06;100.00;103251.47;5099747;27;45418;-74
2023/02/12 04:56:47;;;;;;;;;31.33;28.33;;;;;11.06;100.00;103264.78;5099840;27;45372;-75
2023/02/12 04:59:13;;;;;;;;;27.67;25.00;;;;;11.06;100.00;103272.78;5098216;27;45267;-75
2023/02/12 05:01:40;;;;;;;;;33.33;29.33;;;;;11.05;100.00;103257.78;5099374;27;45518;-75
2023/02/12 05:04:06;;;;;;;;;28.33;26.67;;;;;11.07;100.00;103254.03;5099115;27;45393;-74
2023/02/12 05:06:36;;;;;;;;;28.67;27.00;;;;;11.08;100.00;103257.56;5105627;27;45350;-75
2023/02/12 05:09:03;;;;;;;;;31.33;28.00;;;;;11.03;100.00;103255.22;5099293;27;45512;-74
2023/02/12 05:11:28;;;;;;;;;31.33;28.00;;;;;11.03;100.00;103257.91;5099560;27;46370;-74
2023/02/12 05:13:53;;;;;;;;;27.00;26.67;;;;;11.07;100.00;103256.69;5098010;27;45673;-76
2023/02/12 05:16:20;;;;;;;;;30.00;28.33;;;;;11.05;100.00;103260.44;5099770;27;45440;-74
2023/02/12 05:18:46;;;;;;;;;29.67;25.33;;;;;11.07;100.00;103258.50;5099209;27;45480;-74
2023/02/12 05:21:11;;;;;;;;;31.00;28.33;;;;;11.07;100.00;103255.84;5093289;27;48286;-75
2023/02/12 05:23:38;;;;;;;;;29.67;26.00;;;;;11.07;100.00;103256.69;5098724;27;45426;-75
2023/02/12 05:26:09;;;;;;;;;31.67;28.67;;;;;11.01;100.00;103243.00;5099316;27;45279;-74
2023/02/12 05:28:34;;;;;;;;;33.00;29.00;;;;;11.06;100.00;103254.16;5086136;27;45469;-75
2023/02/12 05:31:02;;;;;;;;;34.00;29.33;;;;;11.05;100.00;103252.47;5098920;27;46508;-74
2023/02/12 05:33:28;;;;;;;;;30.67;28.00;;;;;11.06;100.00;103255.00;5099017;27;45433;-75
2023/02/12 05:35:54;;;;;;;;;27.33;24.33;;;;;11.06;100.00;103252.34;5097801;27;45335;-75
2023/02/12 05:38:19;;;;;;;;;30.33;26.67;;;;;11.05;100.00;103249.78;5099271;27;45476;-74
2023/02/12 05:40:45;;;;;;;;;30.67;27.33;;;;;11.03;100.00;103241.94;5094948;27;47240;-75
2023/02/12 05:43:10;;;;;;;;;27.33;25.33;;;;;10.99;100.00;103243.97;5099231;27;45280;-74
2023/02/12 05:45:36;;;;;;;;;29.00;27.33;;;;;10.97;100.00;103245.91;5099448;27;45212;-75
2023/02/12 05:48:03;;;;;;;;;30.67;27.67;;;;;10.96;100.00;103249.50;5096907;27;45337;-75
2023/02/12 05:50:28;;;;;;;;;29.00;29.00;;;;;11.01;100.00;103253.66;5094361;27;47812;-75
2023/02/12 05:52:54;;;;;;;;;28.33;28.00;;;;;10.98;100.00;103246.72;5097850;27;45752;-75
2023/02/12 05:55:19;;;;;;;;;36.00;29.00;;;;;10.94;100.00;103247.94;5092570;27;45389;-74
2023/02/12 05:57:44;;;;;;;;;32.67;30.67;;;;;10.96;100.00;103240.69;5099102;27;45485;-75
2023/02/12 06:00:10;;;;;;;;;36.33;28.67;;;;;10.99;100.00;103248.44;5098771;27;46300;-75
2023/02/12 06:02:36;;;;;;;;;29.33;28.33;;;;;10.95;100.00;103247.81;5099298;27;45455;-75
2023/02/12 06:05:02;;;;;;;;;38.33;34.00;;;;;10.94;100.00;103246.13;5094588;27;45274;-75
2023/02/12 06:07:27;;;;;;;;;33.67;29.00;;;;;10.97;100.00;103253.88;5106536;27;45407;-75
2023/02/12 06:09:53;;;;;;;;;32.33;30.33;;;;;11.02;100.00;103252.69;5099291;27;45307;-75
2023/02/12 06:12:19;;;;;;;;;36.00;31.33;;;;;11.00;100.00;103247.47;5101314;27;45511;-75
2023/02/12 06:14:44;;;;;;;;;33.67;29.00;;;;;11.00;100.00;103236.84;5097595;27;45325;-75
2023/02/12 06:17:10;;;;;;;;;25.67;25.67;;;;;11.04;100.00;103245.44;5102290;27;45657;-74
2023/02/12 06:19:35;;;;;;;;;31.33;27.67;;;;;10.99;100.00;103235.97;5101761;27;45304;-75
2023/02/12 06:22:01;;;;;;;;;25.00;19.67;;;;;10.92;100.00;103223.28;5101654;27;45444;-75
2023/02/12 06:24:26;;;;;;;;;35.00;30.67;;;;;10.96;100.00;103238.03;5098014;27;45391;-75
2023/02/12 06:26:53;;;;;;;;;38.67;33.00;;;;;10.95;100.00;103246.97;5101993;27;45468;-74
2023/02/12 06:29:19;;;;;;;;;34.50;32.75;;;;;10.89;100.00;103234.97;5101808;27;46066;-74
2023/02/12 06:31:44;;;;;;;;;30.00;27.33;;;;;10.91;100.00;103232.19;5100568;27;45420;-75
2023/02/12 06:34:11;;;;;;;;;25.33;22.00;;;;;10.96;100.00;103232.72;5097216;27;45344;-75
2023/02/12 06:36:40;;;;;;;;;35.33;31.33;;;;;10.99;100.00;103241.28;5100843;27;47188;-75
2023/02/12 06:39:06;;;;;;;;;31.00;27.00;;;;;11.00;100.00;103234.16;5101699;27;46083;-75
2023/02/12 06:41:32;;;;;;;;;28.33;27.67;;;;;11.01;100.00;103240.34;5100468;27;46027;-74
2023/02/12 06:43:57;;;;;;;;;28.00;24.33;;;;;10.96;100.00;103230.06;5098029;27;45184;-74
2023/02/12 06:46:23;;;;;;;;;31.67;30.33;;;;;10.94;100.00;103240.81;5100579;27;45221;-75
2023/02/12 06:48:53;;;;;;;;;31.00;29.67;;;;;10.97;100.00;103245.03;5099037;27;48208;-75
2023/02/12 06:51:20;;;;;;;;;30.00;28.67;;;;;10.96;100.00;103241.53;5093191;27;45504;-74
2023/02/12 06:53:46;;;;;;;;;29.33;27.67;;;;;10.97;100.00;103243.25;5097364;27;45348;-75
2023/02/12 06:56:13;;;;;;;;;35.00;32.00;;;;;10.97;100.00;103248.56;5090478;27;45318;-74
2023/02/12 06:58:41;;;;;;;;;34.00;28.00;;;;;10.95;100.00;103244.28;5101014;27;45582;-75
2023/02/12 07:01:12;;;;;;;;;25.00;21.67;;;;;10.98;100.00;103249.41;5101584;27;45389;-75
2023/02/12 07:03:40;;;;;;;;;19.00;18.00;;;;;10.91;100.00;103249.03;5101561;27;45264;-77
2023/02/12 07:06:06;;;;;;;;;20.33;19.67;;;;;10.88;100.00;103249.25;5104987;27;45467;-74
2023/02/12 07:08:31;;;;;;;;;22.67;21.33;;;;;10.88;100.00;103243.06;5102782;27;46013;-75
2023/02/12 07:10:57;;;;;;;;;22.33;18.00;;;;;10.87;100.00;103250.22;5101482;27;45387;-75
2023/02/12 07:13:22;;;;;;;;;17.00;16.00;;;;;10.92;100.00;103255.19;5086117;27;45284;-75
2023/02/12 07:15:47;;;;;;;;;18.67;18.00;;;;;10.91;100.00;103251.69;5101722;27;45322;-76
2023/02/12 07:18:13;;;;;;;;;16.67;15.67;;;;;10.94;100.00;103254.13;5099720;27;47154;-76
2023/02/12 07:20:38;;;;;;;;;16.67;16.67;;;;;10.97;100.00;103256.56;5101269;27;45418;-76
2023/02/12 07:23:03;;;;;;;;;19.00;16.00;;;;;11.02;100.00;103271.31;5086747;27;45368;-76
2023/02/12 07:25:29;;;;;;;;;20.00;19.00;;;;;11.00;100.00;103263.44;5101336;27;45558;-76
2023/02/12 07:27:54;;;;;;;;;20.00;18.67;;;;;10.97;100.00;103259.22;5101004;27;45317;-76
2023/02/12 07:30:19;;;;;;;;;18.67;17.00;;;;;10.99;100.00;103275.06;5100517;27;45253;-75
2023/02/12 07:32:45;;;;;;;;;19.67;17.00;;;;;10.98;100.00;103274.19;5099853;27;45719;-75
2023/02/12 07:35:10;;;;;;;;;15.67;14.33;;;;;11.02;100.00;103273.97;5100909;27;45425;-76
2023/02/12 07:37:36;;;;;;;;;13.67;11.67;;;;;11.03;100.00;103270.34;5101075;27;46068;-75
2023/02/12 07:40:01;;;;;;;;;15.33;13.67;;;;;11.02;100.00;103266.84;5100993;27;45334;-76
2023/02/12 07:42:28;;;;;;;;;12.00;12.00;;;;;11.07;100.00;103280.66;5100918;27;45248;-76
2023/02/12 07:44:53;;;;;;;;;10.67;10.00;;;;;11.09;100.00;103277.88;5099316;27;45734;-76
2023/02/12 07:47:18;;;;;;;;;13.00;13.00;;;;;11.14;100.00;103280.19;5100925;27;46296;-76
2023/02/12 07:49:44;;;;;;;;;12.00;10.00;;;;;11.11;100.00;103262.66;5100726;27;45292;-75
2023/02/12 07:52:09;;;;;;;;;15.67;15.67;;;;;11.15;100.00;103280.06;5100881;27;45535;-75
2023/02/12 07:54:34;;;;;;;;;15.33;14.00;;;;;11.09;100.00;103272.53;5096336;27;45449;-76
2023/02/12 07:57:00;;;;;;;;;14.33;13.67;;;;;11.13;100.00;103276.66;5100452;27;45343;-78
2023/02/12 07:59:25;;;;;;;;;15.00;14.00;;;;;11.16;100.00;103287.09;5088026;27;45318;-78
2023/02/12 08:01:52;;;;;;;;;16.67;12.00;;;;;11.20;100.00;103279.72;5096237;27;45364;-79
2023/02/12 08:04:20;;;;;;;;;15.67;13.00;;;;;11.25;100.00;103274.88;5099941;27;45336;-75
2023/02/12 08:06:48;;;;;;;;;12.33;11.00;;;;;11.26;100.00;103271.28;5096266;27;45350;-75
2023/02/12 08:09:17;;;;;;;;;10.67;10.67;;;;;11.47;100.00;103279.41;5079651;27;45306;-75
2023/02/12 08:11:42;;;;;;;;;16.33;14.00;;;;;11.35;100.00;103283.03;5099729;27;45467;-76
2023/02/12 08:14:11;;;;;;;;;15.00;13.67;;;;;11.39;100.00;103283.63;5100133;27;45475;-76
2023/02/12 08:16:39;;;;;;;;;12.00;10.00;;;;;11.40;100.00;103278.19;5099648;27;45515;-76
2023/02/12 08:19:05;;;;;;;;;17.67;16.33;;;;;11.41;100.00;103274.59;5100061;27;45750;-76
2023/02/12 08:21:30;;;;;;;;;16.33;16.00;;;;;11.38;100.00;103280.16;5086499;27;45268;-75
2023/02/12 08:23:57;;;;;;;;;20.67;16.67;;;;;11.42;100.00;103284.28;5099990;27;45273;-75
2023/02/12 08:26:27;;;;;;;;;16.00;14.67;;;;;11.43;100.00;103285.13;5086878;27;46317;-75
2023/02/12 08:29:14;;;;;;;;;17.67;16.67;;;;;11.42;100.00;103288.72;5099567;27;45476;-75
2023/02/12 08:31:42;;;;;;;;;23.67;23.00;;;;;11.43;100.00;103282.47;5096071;27;45315;-76
2023/02/12 08:34:28;;;;;;;;;31.67;28.33;;;;;11.43;100.00;103293.13;5096833;27;46187;-76
2023/02/12 08:36:55;;;;;;;;;37.33;33.67;;;;;11.40;100.00;103291.50;5087848;27;45504;-76
2023/02/12 08:39:23;;;;;;;;;54.00;43.50;;;;;11.43;100.00;103290.44;5093970;27;45507;-76
2023/02/12 08:41:48;;;;;;;;;26.67;23.67;;;;;11.42;100.00;103294.91;5098129;27;45360;-75
2023/02/12 08:44:15;;;;;;;;;20.00;18.33;;;;;11.31;100.00;103286.91;5099140;27;45538;-75
2023/02/12 08:46:46;;;;;;;;;28.00;26.33;;;;;11.36;100.00;103303.38;5090379;27;45663;-75
2023/02/12 08:49:30;;;;;;;;;18.67;18.67;;;;;11.40;100.00;103298.69;5095276;27;45817;-75
2023/02/12 08:51:57;;;;;;;;;27.67;25.67;;;;;11.41;100.00;103292.38;5098776;27;45333;-75
2023/02/12 08:54:25;;;;;;;;;26.67;23.33;;;;;11.34;100.00;103292.84;5097782;27;46869;-76
2023/02/12 08:56:59;;;;;;;;;28.67;24.33;;;;;11.49;100.00;103305.94;5099263;27;45543;-75
2023/02/12 08:59:25;;;;;;;;;30.67;26.33;;;;;11.47;100.00;103295.41;5085428;27;45439;-75
2023/02/12 09:01:51;;;;;;;;;33.33;29.33;;;;;11.52;100.00;103299.53;5099690;27;45397;-75
2023/02/12 09:04:20;;;;;;;;;24.67;24.67;;;;;11.47;100.00;103298.06;5098074;27;45458;-75
2023/02/12 09:06:46;;;;;;;;;24.67;24.00;;;;;11.49;100.00;103301.47;5106451;27;45468;-76
2023/02/12 09:09:12;;;;;;;;;30.33;28.33;;;;;11.50;100.00;103291.69;5095066;27;45321;-76
2023/02/12 09:11:38;;;;;;;;;27.33;25.00;;;;;11.49;100.00;103295.28;5094248;27;45322;-76
2023/02/12 09:14:05;;;;;;;;;28.67;25.67;;;;;11.49;100.00;103303.28;5098988;27;46100;-76
2023/02/12 09:16:33;;;;;;;;;23.33;22.33;;;;;11.44;100.00;103292.13;5099082;27;45426;-76
2023/02/12 09:18:59;;;;;;;;;26.33;20.67;;;;;11.58;100.00;103296.38;5099375;27;45348;-77
2023/02/12 09:21:25;;;;;;;;;22.33;21.33;;;;;11.60;100.00;103298.00;5097543;27;45316;-76
2023/02/12 09:23:53;;;;;;;;;23.67;21.33;;;;;11.66;100.00;103296.66;5088776;27;46050;-80
2023/02/12 09:26:22;;;;;;;;;21.33;20.67;;;;;11.73;100.00;103297.88;5087440;27;46651;-80
2023/02/12 09:28:48;;;;;;;;;18.33;17.67;;;;;11.81;100.00;103289.28;5087019;27;45455;-76
2023/02/12 09:31:21;;;;;;;;;30.33;26.67;;;;;11.82;100.00;103296.31;5099229;27;45286;-78
2023/02/12 09:33:47;;;;;;;;;16.00;15.00;;;;;11.85;100.00;103300.53;5094443;27;46315;-76
2023/02/12 09:36:15;;;;;;;;;15.67;15.67;;;;;11.82;100.00;103290.97;5092790;27;48640;-75
2023/02/12 09:38:41;;;;;;;;;17.67;17.00;;;;;11.85;100.00;103298.75;5099336;27;45289;-76
2023/02/12 09:41:40;;;;;;;;;21.33;18.67;;;;;11.85;100.00;103289.88;5096664;27;45374;-76
2023/02/12 09:44:24;;;;;;;;;18.00;17.67;;;;;11.87;100.00;103290.63;5059546;27;46342;-76
2023/02/12 09:47:07;;;;;;;;;22.33;21.00;;;;;11.86;100.00;103283.59;5101879;27;45590;-75
2023/02/12 09:49:51;;;;;;;;;25.67;22.67;;;;;11.91;100.00;103294.75;5102336;27;45374;-75
2023/02/12 09:52:20;;;;;;;;;27.00;24.33;;;;;11.90;100.00;103276.22;5099029;27;45299;-76
2023/02/12 09:54:47;;;;;;;;;24.67;24.67;;;;;11.92;100.00;103280.47;5102454;27;45287;-75
2023/02/12 09:57:28;;;;;;;;;27.33;23.67;;;;;11.92;100.00;103277.81;5100686;27;47419;-76
2023/02/12 10:00:00;;;;;;;;;27.67;25.00;;;;;11.95;100.00;103279.38;5102378;27;45306;-79
2023/02/12 10:02:25;;;;;;;;;28.00;24.33;;;;;11.95;100.00;103280.22;5097423;27;45427;-76
2023/02/12 10:04:53;;;;;;;;;25.33;23.33;;;;;12.00;100.00;103285.16;5091656;27;45258;-78
2023/02/12 10:07:33;;;;;;;;;21.50;21.50;;;;;12.00;100.00;103278.03;5094893;27;47558;-78
2023/02/12 10:10:29;;;;;;;;;25.00;21.67;;;;;12.02;100.00;103285.03;5099044;27;45367;-78
2023/02/12 10:13:02;;;;;;;;;20.33;18.33;;;;;12.09;100.00;103281.81;5098005;27;45417;-78
2023/02/12 10:15:45;;;;;;;;;25.67;24.33;;;;;12.19;100.00;103278.41;5099569;27;45986;-77
2023/02/12 10:18:52;;;;;;;;;25.67;23.33;;;;;12.27;100.00;103280.47;5090448;27;46467;-77
2023/02/12 10:21:52;;;;;;;;;24.00;20.67;;;;;12.28;100.00;103279.50;5088651;27;45479;-78
2023/02/12 10:24:48;;;;;;;;;24.00;23.33;;;;;12.30;100.00;103281.06;5095951;27;45408;-77
2023/02/12 10:27:18;;;;;;;;;22.67;21.33;;;;;12.36;100.00;103280.56;5081510;27;46455;-78
2023/02/12 10:29:46;;;;;;;;;24.67;23.67;;;;;12.45;100.00;103283.50;5095918;27;46292;-77
2023/02/12 10:32:33;;;;;;;;;29.00;25.33;;;;;12.49;100.00;103269.75;5088857;27;45335;-78
2023/02/12 10:34:59;;;;;;;;;26.67;20.67;;;;;12.58;100.00;103270.84;5096464;27;45455;-77
2023/02/12 10:37:56;;;;;;;;;19.00;19.00;;;;;12.58;100.00;103261.97;5092489;27;45405;-76
2023/02/12 10:40:32;;;;;;;;;23.00;22.00;;;;;12.59;100.00;103274.34;5089580;27;46984;-77
2023/02/12 10:43:00;;;;;;;;;19.67;16.33;;;;;12.61;100.00;103285.75;5093120;27;45420;-77
2023/02/12 10:45:33;;;;;;;;;23.00;22.00;;;;;12.65;100.00;103281.00;5111438;27;45463;-76
2023/02/12 10:48:20;;;;;;;;;19.00;19.00;;;;;12.63;100.00;103263.28;5101339;27;45396;-76
2023/02/12 10:51:06;;;;;;;;;22.67;22.67;;;;;12.73;100.00;103266.06;5091612;27;45311;-79
2023/02/12 10:53:46;;;;;;;;;29.00;27.00;;;;;12.79;100.00;103261.19;5097943;27;45467;-77
2023/02/12 10:56:12;;;;;;;;;31.67;25.33;;;;;12.89;100.00;103264.78;5087775;27;45517;-76
2023/02/12 10:59:03;;;;;;;;;26.67;24.00;;;;;12.94;100.00;103264.41;5096553;27;46428;-76
2023/02/12 11:01:35;;;;;;;;;33.67;31.00;;;;;12.97;100.00;103262.34;5087527;27;46192;-76
2023/02/12 11:04:26;;;;;;;;;26.00;24.67;;;;;13.10;100.00;103262.13;5087274;27;45402;-76
2023/02/12 11:07:03;;;;;;;;;28.33;27.00;;;;;13.16;100.00;103250.09;5079985;27;45452;-76
2023/02/12 11:09:44;;;;;;;;;26.00;24.67;;;;;13.23;100.00;103248.59;5098332;27;46142;-76
2023/02/12 11:12:19;;;;;;;;;23.33;22.33;;;;;13.24;100.00;103242.28;5101317;27;45328;-75
2023/02/12 11:15:18;;;;;;;;;26.33;23.00;;;;;13.22;100.00;103228.22;5101121;27;45611;-75
2023/02/12 11:17:55;;;;;;;;;19.00;18.00;;;;;13.32;100.00;103230.94;5087136;27;45296;-75
2023/02/12 11:20:25;;;;;;;;;20.00;18.00;;;;;13.42;100.00;103236.34;5101125;27;45368;-76
2023/02/12 11:22:59;;;;;;;;;21.67;21.00;;;;;13.48;100.00;103222.47;5101029;27;45578;-76